Dog Valley, California Weather observations

Data are for 10 minute period ending at time listed.
 Day   Time    Ave.   Ave.  Ave.  Vector   Max.   Total    Solar   
  of    of     Air    Rel.  Wind   Wind    Wind  Precip.   Rad.    
Year   Day     Temp.  Hum.  Speed  Dir.    Gust                    
2014   (PST)    F      %     mph   deg.    mph     in.     W/m2    
------------------------------------------------------------------- 
 351   20:00   32.0    86    0.0   173      4.0    8.91       0  
 351   21:00   30.0    90    0.0   149      3.0    8.91       0  
 351   22:00   31.0    85    1.0   133      7.0    8.91       0  
 351   23:00   29.0    91    0.0   221      4.0    8.91       0  
 352    0:00   30.0    88    0.0   239      4.0    8.91       0  
 352    1:00   30.0    85    0.0   118      3.0    8.91       0  
 352    2:00   31.0    84    0.0   181      6.0    8.91       0  
 352    3:00   29.0    90    0.0   256      4.0    8.91       0  
 352    4:00   30.0    87    0.0   222      3.0    8.91       0  
 352    5:00   31.0    84    0.0   233      4.0    8.91       0  
 352    6:00   30.0    84    0.0   219      4.0    8.91       0  
 352    7:00   26.0    91    0.0   305      4.0    8.91       0  
 352    8:00   26.0    95    0.0   290      2.0    8.91       8  
 352    9:00   33.0    82    1.0   150      6.0    8.91      44  
 352   10:00   38.0    69    1.0   144      6.0    8.91     110  
 352   11:00   40.0    63    2.0   146      7.0    8.91     120  
 352   12:00   42.0    61    2.0   156      7.0    8.91     213  
 352   13:00   44.0    58    1.0   202      7.0    8.91     191  
 352   14:00   42.0    57    2.0   171      8.0    8.91     138  
 352   15:00   42.0    59    1.0   243      6.0    8.91      41  
 352   16:00   39.0    62    0.0   277      7.0    8.91      32  
 352   17:00   35.0    73    1.0   277      7.0    8.91       8  
 352   18:00   34.0    76    1.0   269      6.0    8.91       0  
 352   19:00   33.0    79    0.0   180      5.0    8.91       0  

Return to Dog Valley, California graphs page.


Western Regional Climate Center,wrcc@dri.edu